createdAt,value
2018-10-12T00:01:16.309Z,98865.45
2018-10-12T00:03:44.616Z,98872.78
2018-10-12T00:06:13.324Z,98875.53
2018-10-12T00:08:41.636Z,98878.42
2018-10-12T00:11:09.967Z,98884.11
2018-10-12T00:13:39.047Z,98877.61
2018-10-12T00:16:07.260Z,98890.30
2018-10-12T00:18:35.506Z,98887.22
2018-10-12T00:21:04.004Z,98889.80
2018-10-12T00:23:32.241Z,98890.86
2018-10-12T00:26:00.622Z,98893.66
2018-10-12T00:28:28.781Z,98893.59
2018-10-12T00:30:56.992Z,98886.66
2018-10-12T00:33:25.201Z,98882.80
2018-10-12T00:35:53.395Z,98880.67
2018-10-12T00:38:21.575Z,98884.28
2018-10-12T00:40:49.922Z,98888.47
2018-10-12T00:43:18.487Z,98891.34
2018-10-12T00:45:46.685Z,98891.82
2018-10-12T00:48:14.843Z,98896.77
2018-10-12T00:50:43.037Z,98894.24
2018-10-12T00:53:11.420Z,98899.20
2018-10-12T00:55:39.568Z,98908.16
2018-10-12T00:58:08.404Z,98913.22
2018-10-12T01:00:36.679Z,98909.25
2018-10-12T01:03:04.883Z,98918.25
2018-10-12T01:05:33.021Z,98915.74
2018-10-12T01:08:01.336Z,98917.65
2018-10-12T01:10:29.476Z,98923.37
2018-10-12T01:12:57.736Z,98924.84
2018-10-12T01:15:25.883Z,98929.62
2018-10-12T01:17:54.068Z,98942.03
2018-10-12T01:20:22.305Z,98925.55
2018-10-12T01:22:50.507Z,98932.92
2018-10-12T01:25:18.755Z,98932.16
2018-10-12T01:27:46.988Z,98936.38
2018-10-12T01:30:15.239Z,98954.70
2018-10-12T01:32:48.808Z,98952.88
2018-10-12T01:35:17.016Z,98951.70
2018-10-12T01:37:45.218Z,98956.50
2018-10-12T01:40:13.467Z,98948.06
2018-10-12T01:42:41.708Z,98947.80
2018-10-12T01:45:09.895Z,98961.30
2018-10-12T01:47:38.171Z,98965.97
2018-10-12T01:50:06.455Z,98969.71
2018-10-12T01:52:34.775Z,98974.59
2018-10-12T01:55:02.959Z,98967.98
2018-10-12T01:57:31.190Z,98979.52
2018-10-12T01:59:59.387Z,98975.41
2018-10-12T02:02:27.598Z,98982.86
2018-10-12T02:04:55.831Z,98985.02
2018-10-12T02:07:24.033Z,98982.75
2018-10-12T02:09:52.350Z,98984.11
2018-10-12T02:12:20.519Z,98982.31
2018-10-12T02:14:48.942Z,98991.48
2018-10-12T02:17:17.212Z,98990.78
2018-10-12T02:19:45.416Z,98985.09
2018-10-12T02:22:14.793Z,98989.29
2018-10-12T02:24:42.964Z,99000.18
2018-10-12T02:27:11.118Z,98995.28
2018-10-12T02:29:39.270Z,98999.31
2018-10-12T02:32:07.435Z,99003.07
2018-10-12T02:34:35.644Z,99007.17
2018-10-12T02:37:03.927Z,99006.25
2018-10-12T02:39:32.250Z,99016.41
2018-10-12T02:42:00.498Z,99018.94
2018-10-12T02:44:28.705Z,99013.14
2018-10-12T02:46:56.883Z,99025.44
2018-10-12T02:49:25.087Z,99013.04
2018-10-12T02:51:53.261Z,99019.36
2018-10-12T02:54:21.476Z,99014.22
2018-10-12T02:56:49.716Z,99027.84
2018-10-12T02:59:17.940Z,99033.87
2018-10-12T03:01:46.408Z,99039.25
2018-10-12T03:04:14.583Z,99042.03
2018-10-12T03:06:42.820Z,99047.31
2018-10-12T03:09:11.891Z,99044.20
2018-10-12T03:11:40.315Z,99047.55
2018-10-12T03:14:08.460Z,99043.60
2018-10-12T03:16:36.636Z,99046.64
2018-10-12T03:19:04.853Z,99048.67
2018-10-12T03:21:33.268Z,99050.42
2018-10-12T03:24:01.741Z,99059.77
2018-10-12T03:26:30.011Z,99067.28
2018-10-12T03:28:58.277Z,99064.52
2018-10-12T03:31:26.462Z,99072.19
2018-10-12T03:33:54.780Z,99073.27
2018-10-12T03:36:22.984Z,99065.13
2018-10-12T03:38:51.269Z,99067.01
2018-10-12T03:41:19.421Z,99071.67
2018-10-12T03:43:48.296Z,99073.39
2018-10-12T03:46:16.555Z,99077.69
2018-10-12T03:48:44.709Z,99084.17
2018-10-12T03:51:12.932Z,99082.59
2018-10-12T03:53:41.092Z,99092.78
2018-10-12T03:56:10.209Z,99091.34
2018-10-12T03:58:38.347Z,99101.06
2018-10-12T04:01:06.536Z,99104.88
2018-10-12T04:03:34.815Z,99103.13
2018-10-12T04:06:03.029Z,99099.35
2018-10-12T04:08:31.170Z,99105.27
2018-10-12T04:10:59.608Z,99114.00
2018-10-12T04:13:27.779Z,99107.20
2018-10-12T04:15:55.920Z,99109.84
2018-10-12T04:18:24.141Z,99116.81
2018-10-12T04:20:52.292Z,99118.57
2018-10-12T04:23:20.528Z,99124.77
2018-10-12T04:25:48.700Z,99127.13
2018-10-12T04:28:16.884Z,99124.02
2018-10-12T04:30:45.108Z,99128.14
2018-10-12T04:33:13.452Z,99126.12
2018-10-12T04:35:41.880Z,99131.49
2018-10-12T04:38:10.333Z,99132.71
2018-10-12T04:41:26.537Z,99136.73
2018-10-12T04:43:56.249Z,99146.89
2018-10-12T04:46:29.760Z,99148.48
2018-10-12T04:48:57.972Z,99143.12
2018-10-12T04:51:35.305Z,99150.80
2018-10-12T04:54:03.455Z,99161.15
2018-10-12T04:56:31.632Z,99164.78
2018-10-12T04:58:59.815Z,99166.46
2018-10-12T05:01:27.986Z,99167.67
2018-10-12T05:03:56.240Z,99167.19
2018-10-12T05:06:24.459Z,99177.05
2018-10-12T05:08:52.688Z,99176.30
2018-10-12T05:11:20.874Z,99186.66
2018-10-12T05:13:49.061Z,99184.73
2018-10-12T05:16:17.255Z,99186.97
2018-10-12T05:18:45.417Z,99190.94
2018-10-12T05:21:13.592Z,99186.39
2018-10-12T05:23:41.739Z,99191.67
2018-10-12T05:26:09.920Z,99195.62
2018-10-12T05:28:38.632Z,99202.33
2018-10-12T05:31:07.120Z,99204.36
2018-10-12T05:33:35.381Z,99215.63
2018-10-12T05:36:03.675Z,99209.17
2018-10-12T05:38:32.745Z,99208.79
2018-10-12T05:41:01.115Z,99216.82
2018-10-12T05:43:29.597Z,99217.88
2018-10-12T05:45:57.853Z,99223.17
2018-10-12T05:48:37.468Z,99230.85
2018-10-12T05:51:06.265Z,99232.05
2018-10-12T05:53:35.062Z,99242.59
2018-10-12T05:56:03.434Z,99243.77
2018-10-12T05:58:31.838Z,99237.78
2018-10-12T06:01:00.124Z,99244.95
2018-10-12T06:03:28.364Z,99249.16
2018-10-12T06:05:56.577Z,99248.78
2018-10-12T06:08:24.819Z,99251.42
2018-10-12T06:10:53.467Z,99253.62
2018-10-12T06:13:21.655Z,99250.84
2018-10-12T06:15:49.815Z,99248.71
2018-10-12T06:18:18.110Z,99254.92
2018-10-12T06:20:46.372Z,99261.16
2018-10-12T06:23:14.720Z,99263.78
2018-10-12T06:25:42.963Z,99272.03
2018-10-12T06:28:11.166Z,99272.53
2018-10-12T06:30:39.526Z,99270.58
2018-10-12T06:33:07.999Z,99270.34
2018-10-12T06:35:36.198Z,99269.13
2018-10-12T06:38:04.382Z,99266.60
2018-10-12T06:40:33.304Z,99271.19
2018-10-12T06:43:01.719Z,99277.31
2018-10-12T06:45:29.884Z,99286.24
2018-10-12T06:47:58.204Z,99294.28
2018-10-12T06:50:26.491Z,99292.67
2018-10-12T06:52:54.748Z,99302.44
2018-10-12T06:55:22.931Z,99299.16
2018-10-12T06:57:51.209Z,99302.98
2018-10-12T07:00:19.379Z,99306.95
2018-10-12T07:02:47.544Z,99311.69
2018-10-12T07:05:15.684Z,99310.77
2018-10-12T07:07:44.084Z,99312.80
2018-10-12T07:10:12.292Z,99318.02
2018-10-12T07:12:40.462Z,99320.82
2018-10-12T07:15:09.078Z,99317.66
2018-10-12T07:17:37.308Z,99315.64
2018-10-12T07:20:05.483Z,99312.91
2018-10-12T07:22:33.702Z,99310.40
2018-10-12T07:25:01.869Z,99316.66
2018-10-12T07:27:30.019Z,99315.06
2018-10-12T07:29:58.208Z,99320.24
2018-10-12T07:32:26.373Z,99322.63
2018-10-12T07:34:55.437Z,99317.28
2018-10-12T07:37:23.801Z,99324.00
2018-10-12T07:39:51.903Z,99328.72
2018-10-12T07:42:20.170Z,99330.53
2018-10-12T07:44:48.296Z,99329.20
2018-10-12T07:47:16.621Z,99331.07
2018-10-12T07:49:44.764Z,99327.31
2018-10-12T07:52:13.101Z,99326.53
2018-10-12T07:54:41.383Z,99320.47
2018-10-12T07:57:10.511Z,99320.64
2018-10-12T07:59:39.192Z,99321.91
2018-10-12T08:02:08.092Z,99319.92
2018-10-12T08:04:36.483Z,99328.92
2018-10-12T08:07:04.647Z,99328.96
2018-10-12T08:09:32.940Z,99332.26
2018-10-12T08:12:01.204Z,99332.20
2018-10-12T08:14:29.439Z,99325.45
2018-10-12T08:16:58.012Z,99324.64
2018-10-12T08:19:26.515Z,99328.50
2018-10-12T08:21:54.778Z,99332.30
2018-10-12T08:24:22.939Z,99333.55
2018-10-12T08:26:51.448Z,99331.87
2018-10-12T08:29:20.137Z,99332.08
2018-10-12T08:31:48.305Z,99328.02
2018-10-12T08:34:16.702Z,99329.77
2018-10-12T08:36:45.016Z,99328.70
2018-10-12T08:39:13.753Z,99328.88
2018-10-12T08:41:41.940Z,99331.09
2018-10-12T08:44:10.592Z,99339.11
2018-10-12T08:46:38.719Z,99340.89
2018-10-12T08:49:06.884Z,99336.74
2018-10-12T08:51:35.696Z,99331.63
2018-10-12T08:54:04.021Z,99327.34
2018-10-12T08:56:32.229Z,99334.70
2018-10-12T08:59:00.785Z,99332.68
2018-10-12T09:01:29.119Z,99335.38
2018-10-12T09:03:57.756Z,99340.19
2018-10-12T09:06:25.907Z,99339.03
2018-10-12T09:08:54.312Z,99336.23
2018-10-12T09:11:22.595Z,99340.56
2018-10-12T09:13:50.764Z,99342.71
2018-10-12T09:16:19.783Z,99345.20
2018-10-12T09:18:48.129Z,99338.17
2018-10-12T09:21:16.568Z,99346.49
2018-10-12T09:23:45.009Z,99345.59
2018-10-12T09:26:13.514Z,99344.56
2018-10-12T09:28:41.954Z,99347.53
2018-10-12T09:31:10.272Z,99341.30
2018-10-12T09:33:38.411Z,99340.52
2018-10-12T09:36:06.786Z,99338.30
2018-10-12T09:38:35.423Z,99343.41
2018-10-12T09:41:03.848Z,99335.36
2018-10-12T09:43:32.256Z,99334.14
2018-10-12T09:46:00.533Z,99340.04
2018-10-12T09:48:28.945Z,99345.97
2018-10-12T09:50:57.262Z,99332.89
2018-10-12T09:53:25.997Z,99337.47
2018-10-12T09:55:54.457Z,99341.61
2018-10-12T09:58:22.823Z,99346.88
2018-10-12T10:00:56.528Z,99349.09
2018-10-12T10:03:30.224Z,99349.55
2018-10-12T10:05:59.477Z,99343.41
2018-10-12T10:08:28.096Z,99338.44
2018-10-12T10:10:56.260Z,99335.72
2018-10-12T10:13:24.583Z,99343.26
2018-10-12T10:15:53.045Z,99337.43
2018-10-12T10:18:21.365Z,99330.39
2018-10-12T10:20:49.783Z,99328.75
2018-10-12T10:23:18.560Z,99330.18
2018-10-12T10:25:46.694Z,99334.27
2018-10-12T10:28:15.118Z,99331.48
2018-10-12T10:30:43.784Z,99327.91
2018-10-12T10:33:12.184Z,99333.66
2018-10-12T10:35:40.560Z,99329.75
2018-10-12T10:38:08.983Z,99333.77
2018-10-12T10:40:37.249Z,99331.17
2018-10-12T10:43:05.644Z,99323.52
2018-10-12T10:45:34.164Z,99327.09
2018-10-12T10:48:02.551Z,99322.54
2018-10-12T10:50:30.925Z,99320.33
2018-10-12T10:53:06.124Z,99318.52
2018-10-12T10:55:34.508Z,99311.91
2018-10-12T10:58:02.948Z,99313.99
2018-10-12T11:00:31.376Z,99314.83
2018-10-12T11:02:59.829Z,99313.70
2018-10-12T11:05:28.089Z,99307.63
2018-10-12T11:07:56.538Z,99306.48
2018-10-12T11:10:24.736Z,99307.52
2018-10-12T11:12:53.276Z,99309.73
2018-10-12T11:15:21.632Z,99306.01
2018-10-12T11:17:50.028Z,99296.43
2018-10-12T11:20:18.287Z,99297.78
2018-10-12T11:22:46.751Z,99286.54
2018-10-12T11:25:15.131Z,99288.22
2018-10-12T11:27:43.976Z,99284.52
2018-10-12T11:30:12.397Z,99284.14
2018-10-12T11:32:40.869Z,99284.94
2018-10-12T11:35:09.255Z,99280.97
2018-10-12T11:37:37.481Z,99281.06
2018-10-12T11:40:05.728Z,99281.91
2018-10-12T11:42:45.350Z,99283.47
2018-10-12T11:45:13.682Z,99284.18
2018-10-12T11:47:41.928Z,99274.27
2018-10-12T11:50:10.418Z,99270.12
2018-10-12T11:52:38.830Z,99273.06
2018-10-12T11:55:07.261Z,99267.55
2018-10-12T11:57:35.297Z,99268.61
2018-10-12T12:00:03.845Z,99263.94
2018-10-12T12:02:32.926Z,99264.98
2018-10-12T12:05:01.717Z,99255.27
2018-10-12T12:07:30.249Z,99259.67
2018-10-12T12:09:58.658Z,99260.12
2018-10-12T12:12:27.072Z,99259.58
2018-10-12T12:14:55.514Z,99260.42
2018-10-12T12:17:23.891Z,99267.38
2018-10-12T12:19:52.468Z,99260.66
2018-10-12T12:22:20.939Z,99259.09
2018-10-12T12:24:49.072Z,99254.26
2018-10-12T12:27:17.509Z,99251.72
2018-10-12T12:29:45.974Z,99249.55
2018-10-12T12:32:14.445Z,99245.09
2018-10-12T12:34:43.081Z,99244.86
2018-10-12T12:37:11.390Z,99247.37
2018-10-12T12:39:39.825Z,99243.25
2018-10-12T12:42:08.347Z,99241.58
2018-10-12T12:44:36.736Z,99249.77
2018-10-12T12:47:05.145Z,99245.72
2018-10-12T12:49:34.300Z,99239.01
2018-10-12T12:52:02.640Z,99237.23
2018-10-12T12:54:31.162Z,99240.04
2018-10-12T12:56:59.705Z,99231.12
2018-10-12T12:59:28.176Z,99233.83
2018-10-12T13:01:56.610Z,99234.33
2018-10-12T13:04:25.064Z,99232.58
2018-10-12T13:06:53.259Z,99223.58
2018-10-12T13:09:21.653Z,99228.84
2018-10-12T13:11:49.953Z,99228.22
2018-10-12T13:14:18.411Z,99233.30
2018-10-12T13:16:46.850Z,99228.12
2018-10-12T13:19:15.313Z,99234.87
2018-10-12T13:21:43.547Z,99230.72
2018-10-12T13:24:12.066Z,99227.79
2018-10-12T13:26:40.368Z,99226.09
2018-10-12T13:29:08.708Z,99233.73
2018-10-12T13:31:37.121Z,99230.98
2018-10-12T13:34:05.604Z,99231.53
2018-10-12T13:36:34.140Z,99235.09
2018-10-12T13:39:02.641Z,99228.84
2018-10-12T13:41:31.209Z,99235.00
2018-10-12T13:43:59.813Z,99234.86
2018-10-12T13:46:28.283Z,99234.83
2018-10-12T13:48:56.701Z,99237.88
2018-10-12T13:51:25.081Z,99234.05
2018-10-12T13:53:53.463Z,99239.39
2018-10-12T13:56:21.719Z,99233.77
2018-10-12T13:58:50.291Z,99230.39
2018-10-12T14:01:18.606Z,99230.69
2018-10-12T14:03:47.081Z,99232.94
2018-10-12T14:06:15.490Z,99228.52
2018-10-12T14:08:43.934Z,99231.98
2018-10-12T14:11:12.441Z,99230.14
2018-10-12T14:13:40.960Z,99231.47
2018-10-12T14:16:09.493Z,99233.43
2018-10-12T14:18:37.985Z,99229.55
2018-10-12T14:21:06.152Z,99227.77
2018-10-12T14:23:34.736Z,99227.38
2018-10-12T14:26:03.249Z,99216.42
2018-10-12T14:28:31.679Z,99229.75
2018-10-12T14:31:00.349Z,99230.98
2018-10-12T14:33:28.774Z,99231.08
2018-10-12T14:35:57.173Z,99230.56
2018-10-12T14:38:25.566Z,99226.66
2018-10-12T14:40:54.005Z,99227.20
2018-10-12T14:43:22.501Z,99224.47
2018-10-12T14:45:50.942Z,99226.36
2018-10-12T14:48:19.296Z,99225.74
2018-10-12T14:50:47.657Z,99229.80
2018-10-12T14:53:15.967Z,99234.47
2018-10-12T14:55:44.388Z,99229.56
2018-10-12T14:58:12.793Z,99241.17
2018-10-12T15:00:41.292Z,99242.52
2018-10-12T15:03:09.828Z,99243.88
2018-10-12T15:05:39.365Z,99243.06
2018-10-12T15:08:07.893Z,99244.59
2018-10-12T15:10:36.421Z,99237.98
2018-10-12T15:13:05.009Z,99247.49
2018-10-12T15:15:33.447Z,99240.67
2018-10-12T15:18:01.724Z,99239.84
2018-10-12T15:20:30.261Z,99247.19
2018-10-12T15:22:58.686Z,99244.27
2018-10-12T15:25:27.219Z,99249.32
2018-10-12T15:27:55.585Z,99241.13
2018-10-12T15:30:24.063Z,99245.13
2018-10-12T15:32:52.385Z,99247.05
2018-10-12T15:35:20.912Z,99244.98
2018-10-12T15:37:49.424Z,99241.16
2018-10-12T15:40:17.857Z,99242.33
2018-10-12T15:42:46.236Z,99240.77
2018-10-12T15:45:14.709Z,99241.15
2018-10-12T15:47:43.153Z,99243.30
2018-10-12T15:50:11.656Z,99243.17
2018-10-12T15:52:41.007Z,99246.53
2018-10-12T15:55:09.432Z,99248.27
2018-10-12T15:57:37.833Z,99252.16
2018-10-12T16:00:06.356Z,99249.90
2018-10-12T16:02:34.876Z,99248.46
2018-10-12T16:05:03.455Z,99246.63
2018-10-12T16:07:31.870Z,99250.54
2018-10-12T16:10:00.261Z,99255.81
2018-10-12T16:12:28.516Z,99256.11
2018-10-12T16:14:56.760Z,99255.89
2018-10-12T16:17:25.005Z,99257.92
2018-10-12T16:19:53.473Z,99253.71
2018-10-12T16:22:21.818Z,99256.55
2018-10-12T16:25:01.368Z,99261.44
2018-10-12T16:27:29.835Z,99253.21
2018-10-12T16:29:58.112Z,99255.69
2018-10-12T16:32:26.343Z,99245.07
2018-10-12T16:34:54.966Z,99243.66
2018-10-12T16:37:23.772Z,99251.00
2018-10-12T16:39:52.123Z,99257.84
2018-10-12T16:42:20.265Z,99262.26
2018-10-12T16:44:48.685Z,99265.48
2018-10-12T16:47:17.100Z,99271.92
2018-10-12T16:49:45.516Z,99273.91
2018-10-12T16:52:13.938Z,99277.69
2018-10-12T16:54:42.240Z,99279.78
2018-10-12T16:57:10.443Z,99285.85
2018-10-12T16:59:38.769Z,99284.73
2018-10-12T17:02:07.087Z,99288.84
2018-10-12T17:04:35.534Z,99287.88
2018-10-12T17:07:03.956Z,99291.50
2018-10-12T17:09:33.243Z,99288.36
2018-10-12T17:12:01.496Z,99290.55
2018-10-12T17:14:29.832Z,99298.16
2018-10-12T17:16:58.140Z,99299.54
2018-10-12T17:19:26.550Z,99301.72
2018-10-12T17:21:54.944Z,99300.27
2018-10-12T17:24:23.381Z,99300.97
2018-10-12T17:26:51.659Z,99298.34
2018-10-12T17:29:23.948Z,99301.77
2018-10-12T17:31:52.457Z,99302.66
2018-10-12T17:34:20.919Z,99307.36
2018-10-12T17:36:49.232Z,99309.89
2018-10-12T17:39:17.351Z,99307.76
2018-10-12T17:41:45.710Z,99311.28
2018-10-12T17:44:14.102Z,99323.31
2018-10-12T17:46:42.540Z,99324.52
2018-10-12T17:49:10.955Z,99323.05
2018-10-12T17:51:39.274Z,99330.20
2018-10-12T17:54:07.673Z,99337.75
2018-10-12T17:56:36.069Z,99324.53
2018-10-12T17:59:04.640Z,99330.05
2018-10-12T18:01:33.132Z,99341.34
2018-10-12T18:04:01.648Z,99343.38
2018-10-12T18:06:30.365Z,99342.70
2018-10-12T18:08:58.770Z,99349.83
2018-10-12T18:11:27.189Z,99345.98
2018-10-12T18:13:55.613Z,99349.63
2018-10-12T18:16:24.038Z,99347.63
2018-10-12T18:18:52.455Z,99352.59
2018-10-12T18:21:20.741Z,99348.08
2018-10-12T18:23:49.173Z,99345.41
2018-10-12T18:26:17.564Z,99351.14
2018-10-12T18:28:45.920Z,99348.78
2018-10-12T18:31:14.337Z,99350.09
2018-10-12T18:33:42.812Z,99345.23
2018-10-12T18:36:11.339Z,99348.23
2018-10-12T18:38:39.666Z,99347.27
2018-10-12T18:41:08.177Z,99336.25
2018-10-12T18:43:36.606Z,99342.02
2018-10-12T18:46:05.077Z,99349.13
2018-10-12T18:48:33.464Z,99355.92
2018-10-12T18:51:01.817Z,99354.23
2018-10-12T18:53:30.341Z,99351.77
2018-10-12T18:55:58.563Z,99359.53
2018-10-12T18:58:27.027Z,99363.95
2018-10-12T19:00:55.239Z,99373.77
2018-10-12T19:03:23.528Z,99371.72
2018-10-12T19:05:52.845Z,99377.77
2018-10-12T19:08:21.257Z,99377.69
2018-10-12T19:10:49.873Z,99380.25
2018-10-12T19:13:18.292Z,99382.87
2018-10-12T19:15:46.703Z,99377.02
2018-10-12T19:18:15.100Z,99383.31
2018-10-12T19:20:43.559Z,99388.50
2018-10-12T19:23:12.046Z,99390.58
2018-10-12T19:25:40.287Z,99386.08
2018-10-12T19:28:08.782Z,99391.75
2018-10-12T19:30:37.083Z,99394.05
2018-10-12T19:33:05.276Z,99397.75
2018-10-12T19:35:33.659Z,99402.72
2018-10-12T19:38:02.136Z,99400.17
2018-10-12T19:40:30.517Z,99404.37
2018-10-12T19:42:58.953Z,99401.55
2018-10-12T19:45:27.494Z,99400.20
2018-10-12T19:47:55.971Z,99401.22
2018-10-12T19:50:24.399Z,99408.69
2018-10-12T19:52:52.798Z,99416.59
2018-10-12T19:55:21.838Z,99414.60
2018-10-12T19:57:50.256Z,99426.37
2018-10-12T20:00:18.605Z,99427.79
2018-10-12T20:02:46.884Z,99425.37
2018-10-12T20:05:15.272Z,99432.34
2018-10-12T20:07:44.600Z,99431.50
2018-10-12T20:10:13.069Z,99428.59
2018-10-12T20:12:41.380Z,99432.81
2018-10-12T20:15:09.664Z,99430.87
2018-10-12T20:17:38.015Z,99434.77
2018-10-12T20:20:06.119Z,99436.73
2018-10-12T20:22:34.420Z,99437.58
2018-10-12T20:25:02.769Z,99438.75
2018-10-12T20:27:30.916Z,99439.53
2018-10-12T20:29:59.264Z,99436.47
2018-10-12T20:32:27.394Z,99443.95
2018-10-12T20:34:55.689Z,99440.52
2018-10-12T20:37:23.948Z,99440.70
2018-10-12T20:39:53.265Z,99442.95
2018-10-12T20:42:21.514Z,99441.88
2018-10-12T20:44:49.792Z,99443.09
2018-10-12T20:47:17.981Z,99443.76
2018-10-12T20:49:46.171Z,99438.80
2018-10-12T20:52:14.355Z,99447.69
2018-10-12T20:54:42.517Z,99451.66
2018-10-12T20:57:10.736Z,99452.23
2018-10-12T20:59:39.123Z,99447.58
2018-10-12T21:02:07.351Z,99443.75
2018-10-12T21:04:35.508Z,99448.20
2018-10-12T21:07:03.711Z,99445.98
2018-10-12T21:09:32.187Z,99437.25
2018-10-12T21:12:00.430Z,99446.11
2018-10-12T21:14:28.647Z,99440.23
2018-10-12T21:16:56.941Z,99442.66
2018-10-12T21:19:25.292Z,99449.36
2018-10-12T21:21:53.907Z,99433.55
2018-10-12T21:24:22.131Z,99436.35
2018-10-12T21:26:50.379Z,99437.55
2018-10-12T21:29:18.699Z,99444.56
2018-10-12T21:31:46.839Z,99439.52
2018-10-12T21:34:15.039Z,99441.37
2018-10-12T21:36:43.335Z,99441.98
2018-10-12T21:39:11.742Z,99449.93
2018-10-12T21:41:40.096Z,99447.70
2018-10-12T21:44:08.313Z,99444.41
2018-10-12T21:46:36.524Z,99446.40
2018-10-12T21:49:04.698Z,99442.27
2018-10-12T21:51:32.879Z,99445.91
2018-10-12T21:54:01.040Z,99447.23
2018-10-12T21:56:29.333Z,99447.33
2018-10-12T21:58:57.709Z,99440.95
2018-10-12T22:02:39.251Z,99441.91
2018-10-12T22:05:07.570Z,99439.73
2018-10-12T22:07:35.753Z,99437.60
2018-10-12T22:10:04.140Z,99436.94
2018-10-12T22:12:32.301Z,99439.52
2018-10-12T22:15:00.496Z,99435.33
2018-10-12T22:17:28.757Z,99433.42
2018-10-12T22:19:56.888Z,99431.47
2018-10-12T22:22:25.119Z,99433.40
2018-10-12T22:24:53.342Z,99430.66
2018-10-12T22:27:21.517Z,99430.14
2018-10-12T22:29:49.816Z,99426.79
2018-10-12T22:32:18.007Z,99422.86
2018-10-12T22:34:46.156Z,99417.19
2018-10-12T22:37:14.301Z,99423.59
2018-10-12T22:39:43.233Z,99424.81
2018-10-12T22:42:12.524Z,99420.55
2018-10-12T22:44:40.859Z,99419.42
2018-10-12T22:47:09.707Z,99416.62
2018-10-12T22:49:37.832Z,99414.58
2018-10-12T22:52:06.224Z,99412.89
2018-10-12T22:54:34.464Z,99407.02
2018-10-12T22:57:02.691Z,99411.73
2018-10-12T22:59:31.059Z,99410.55
2018-10-12T23:01:59.284Z,99408.79
2018-10-12T23:04:27.608Z,99412.08
2018-10-12T23:06:56.424Z,99408.58
2018-10-12T23:09:24.752Z,99402.48
2018-10-12T23:11:52.908Z,99397.59
2018-10-12T23:14:21.058Z,99402.72
2018-10-12T23:16:49.460Z,99399.17
2018-10-12T23:19:17.880Z,99397.52
2018-10-12T23:21:46.015Z,99397.54
2018-10-12T23:24:14.181Z,99398.53
2018-10-12T23:26:42.379Z,99400.80
2018-10-12T23:29:10.512Z,99394.58
2018-10-12T23:31:38.731Z,99397.22
2018-10-12T23:34:08.224Z,99396.48
2018-10-12T23:36:36.434Z,99397.54
2018-10-12T23:39:06.692Z,99393.69
2018-10-12T23:41:35.098Z,99394.27
2018-10-12T23:44:03.280Z,99392.84
2018-10-12T23:46:31.481Z,99389.02
2018-10-12T23:48:59.743Z,99387.27
2018-10-12T23:51:28.220Z,99380.78
2018-10-12T23:53:57.449Z,99380.45
2018-10-12T23:56:25.592Z,99385.86
2018-10-12T23:58:53.823Z,99386.70
